createdAt,value
2018-01-13T00:01:33.919Z,44.80
2018-01-13T00:04:01.433Z,44.70
2018-01-13T00:06:28.940Z,44.60
2018-01-13T00:08:57.220Z,44.30
2018-01-13T00:11:25.472Z,44.40
2018-01-13T00:13:54.994Z,44.40
2018-01-13T00:16:22.799Z,44.40
2018-01-13T00:18:51.836Z,44.20
2018-01-13T00:21:19.551Z,44.20
2018-01-13T00:23:47.068Z,44.10
2018-01-13T00:26:14.586Z,44.20
2018-01-13T00:28:42.077Z,44.10
2018-01-13T00:31:09.584Z,44.00
2018-01-13T00:33:37.078Z,43.90
2018-01-13T00:36:06.549Z,43.80
2018-01-13T00:38:34.044Z,43.70
2018-01-13T00:41:03.315Z,43.60
2018-01-13T00:43:32.080Z,43.70
2018-01-13T00:45:59.584Z,43.50
2018-01-13T00:48:27.096Z,43.50
2018-01-13T00:50:54.716Z,43.50
2018-01-13T00:53:22.992Z,43.50
2018-01-13T00:55:51.245Z,43.60
2018-01-13T00:58:18.760Z,43.60
2018-01-13T01:00:46.252Z,43.60
2018-01-13T01:03:14.700Z,43.50
2018-01-13T01:05:42.209Z,43.50
2018-01-13T01:08:10.480Z,43.50
2018-01-13T01:10:37.992Z,43.50
2018-01-13T01:13:05.480Z,43.40
2018-01-13T01:15:32.993Z,43.40
2018-01-13T01:18:01.697Z,43.30
2018-01-13T01:20:30.296Z,43.40
2018-01-13T01:22:58.168Z,43.40
2018-01-13T01:25:26.101Z,43.30
2018-01-13T01:27:53.635Z,43.20
2018-01-13T01:30:21.152Z,43.10
2018-01-13T01:32:48.659Z,43.10
2018-01-13T01:35:16.148Z,43.00
2018-01-13T01:37:43.664Z,43.00
2018-01-13T01:40:11.922Z,43.00
2018-01-13T01:42:40.201Z,42.90
2018-01-13T01:45:08.476Z,42.90
2018-01-13T01:47:36.749Z,42.90
2018-01-13T01:50:05.000Z,43.00
2018-01-13T01:52:33.264Z,43.20
2018-01-13T01:55:00.777Z,42.90
2018-01-13T01:57:29.220Z,42.90
2018-01-13T01:59:58.610Z,42.80
2018-01-13T02:02:26.105Z,42.80
2018-01-13T02:04:56.325Z,42.80
2018-01-13T02:07:24.576Z,42.80
2018-01-13T02:09:52.073Z,42.80
2018-01-13T02:12:19.592Z,43.30
2018-01-13T02:14:47.081Z,42.80
2018-01-13T02:17:16.576Z,42.80
2018-01-13T02:19:44.072Z,42.80
2018-01-13T02:22:12.122Z,42.80
2018-01-13T02:24:40.156Z,42.80
2018-01-13T02:27:08.715Z,42.90
2018-01-13T02:29:37.458Z,42.90
2018-01-13T02:32:05.265Z,42.80
2018-01-13T02:34:32.985Z,42.80
2018-01-13T02:37:00.849Z,42.80
2018-01-13T02:39:28.581Z,42.80
2018-01-13T02:41:56.374Z,42.80
2018-01-13T02:44:24.184Z,42.80
2018-01-13T02:46:52.106Z,42.80
2018-01-13T02:49:19.972Z,42.80
2018-01-13T02:51:47.734Z,42.80
2018-01-13T02:54:16.624Z,42.80
2018-01-13T02:56:44.489Z,42.80
2018-01-13T02:59:12.867Z,42.80
2018-01-13T03:01:40.629Z,42.80
2018-01-13T03:04:08.252Z,42.90
2018-01-13T03:06:35.804Z,42.90
2018-01-13T03:09:04.239Z,42.90
2018-01-13T03:11:31.757Z,43.60
2018-01-13T03:14:00.010Z,42.80
2018-01-13T03:16:28.278Z,43.00
2018-01-13T03:18:55.790Z,42.80
2018-01-13T03:21:24.228Z,42.80
2018-01-13T03:23:52.513Z,42.90
2018-01-13T03:26:20.768Z,42.90
2018-01-13T03:28:48.276Z,42.90
2018-01-13T03:31:15.768Z,42.90
2018-01-13T03:33:43.282Z,42.90
2018-01-13T03:36:10.793Z,42.90
2018-01-13T03:38:38.276Z,42.90
2018-01-13T03:41:06.552Z,43.00
2018-01-13T03:43:34.810Z,43.00
2018-01-13T03:46:03.077Z,43.00
2018-01-13T03:48:30.596Z,43.00
2018-01-13T03:50:58.080Z,43.00
2018-01-13T03:53:26.365Z,43.60
2018-01-13T03:55:53.860Z,43.00
2018-01-13T03:58:22.351Z,43.00
2018-01-13T04:00:49.844Z,42.90
2018-01-13T04:03:18.285Z,42.90
2018-01-13T04:05:45.796Z,42.90
2018-01-13T04:08:13.289Z,42.90
2018-01-13T04:10:40.804Z,42.90
2018-01-13T04:13:09.246Z,42.90
2018-01-13T04:15:36.764Z,42.90
2018-01-13T04:18:05.030Z,43.00
2018-01-13T04:20:33.283Z,42.90
2018-01-13T04:23:02.305Z,43.00
2018-01-13T04:25:30.556Z,43.00
2018-01-13T04:27:58.065Z,43.00
2018-01-13T04:30:25.556Z,43.00
2018-01-13T04:32:55.024Z,43.00
2018-01-13T04:35:22.513Z,43.00
2018-01-13T04:37:50.187Z,43.00
2018-01-13T04:40:17.700Z,43.00
2018-01-13T04:42:45.188Z,43.00
2018-01-13T04:45:14.660Z,43.00
2018-01-13T04:47:42.148Z,43.00
2018-01-13T04:50:09.685Z,43.00
2018-01-13T04:52:37.176Z,43.00
2018-01-13T04:55:05.436Z,43.00
2018-01-13T04:57:32.949Z,43.00
2018-01-13T05:00:00.436Z,43.60
2018-01-13T05:02:27.953Z,43.00
2018-01-13T05:04:56.211Z,43.00
2018-01-13T05:07:24.496Z,43.00
2018-01-13T05:09:52.748Z,43.00
2018-01-13T05:12:20.237Z,42.90
2018-01-13T05:14:50.452Z,43.00
2018-01-13T05:17:18.708Z,43.00
2018-01-13T05:19:46.340Z,43.00
2018-01-13T05:22:13.836Z,43.00
2018-01-13T05:24:42.112Z,43.00
2018-01-13T05:27:10.376Z,43.00
2018-01-13T05:29:39.576Z,43.00
2018-01-13T05:32:07.851Z,43.60
2018-01-13T05:34:36.115Z,43.00
2018-01-13T05:37:03.625Z,43.00
2018-01-13T05:39:31.121Z,42.90
2018-01-13T05:41:59.396Z,42.90
2018-01-13T05:44:28.396Z,43.00
2018-01-13T05:46:57.401Z,43.00
2018-01-13T05:49:25.689Z,43.00
2018-01-13T05:51:53.945Z,43.00
2018-01-13T05:54:22.220Z,43.00
2018-01-13T05:56:49.717Z,43.00
2018-01-13T05:59:17.237Z,43.00
2018-01-13T06:01:45.492Z,43.00
2018-01-13T06:04:12.984Z,42.90
2018-01-13T06:06:41.269Z,43.00
2018-01-13T06:09:08.756Z,42.90
2018-01-13T06:11:36.277Z,43.00
2018-01-13T06:14:04.738Z,42.90
2018-01-13T06:16:33.016Z,43.00
2018-01-13T06:19:01.270Z,43.10
2018-01-13T06:21:28.768Z,43.00
2018-01-13T06:23:56.281Z,43.60
2018-01-13T06:26:25.281Z,43.00
2018-01-13T06:28:52.796Z,43.00
2018-01-13T06:31:20.284Z,43.00
2018-01-13T06:33:49.528Z,43.00
2018-01-13T06:36:17.022Z,43.00
2018-01-13T06:38:44.512Z,43.00
2018-01-13T06:41:12.037Z,43.00
2018-01-13T06:43:39.529Z,43.00
2018-01-13T06:46:07.810Z,43.00
2018-01-13T06:48:36.069Z,43.00
2018-01-13T06:51:03.580Z,43.00
2018-01-13T06:53:31.073Z,43.00
2018-01-13T06:55:59.338Z,43.10
2018-01-13T06:58:26.844Z,43.10
2018-01-13T07:00:54.329Z,43.10
2018-01-13T07:03:21.840Z,43.10
2018-01-13T07:05:50.096Z,43.10
2018-01-13T07:08:19.129Z,43.10
2018-01-13T07:10:46.634Z,43.10
2018-01-13T07:13:14.121Z,43.10
2018-01-13T07:15:44.365Z,43.10
2018-01-13T07:18:11.877Z,43.10
2018-01-13T07:20:39.390Z,43.10
2018-01-13T07:23:06.876Z,43.10
2018-01-13T07:25:34.384Z,43.10
2018-01-13T07:28:01.885Z,43.10
2018-01-13T07:30:30.897Z,43.10
2018-01-13T07:32:59.412Z,43.10
2018-01-13T07:35:27.668Z,43.20
2018-01-13T07:37:55.188Z,43.10
2018-01-13T07:40:22.683Z,43.20
2018-01-13T07:42:51.216Z,43.10
2018-01-13T07:45:18.714Z,43.00
2018-01-13T07:47:46.225Z,43.10
2018-01-13T07:50:14.691Z,43.10
2018-01-13T07:52:42.184Z,43.20
2018-01-13T07:55:09.695Z,43.10
2018-01-13T07:57:37.181Z,43.10
2018-01-13T08:00:04.723Z,43.10
2018-01-13T08:02:32.216Z,43.10
2018-01-13T08:04:59.728Z,43.10
2018-01-13T08:07:27.217Z,43.10
2018-01-13T08:09:55.644Z,43.10
2018-01-13T08:12:23.922Z,43.10
2018-01-13T08:14:53.139Z,43.10
2018-01-13T08:17:21.585Z,43.10
2018-01-13T08:19:49.074Z,43.10
2018-01-13T08:22:16.587Z,43.10
2018-01-13T08:24:44.081Z,43.10
2018-01-13T08:27:11.592Z,43.00
2018-01-13T08:29:39.081Z,43.10
2018-01-13T08:32:06.600Z,43.10
2018-01-13T08:34:34.112Z,43.10
2018-01-13T08:37:01.638Z,43.10
2018-01-13T08:39:29.134Z,43.00
2018-01-13T08:41:56.715Z,43.10
2018-01-13T08:44:24.177Z,43.10
2018-01-13T08:46:51.688Z,43.10
2018-01-13T08:49:19.183Z,43.10
2018-01-13T08:51:46.725Z,43.00
2018-01-13T08:54:14.208Z,43.00
2018-01-13T08:56:42.668Z,43.10
2018-01-13T08:59:10.181Z,43.10
2018-01-13T09:01:40.932Z,43.10
2018-01-13T09:04:08.448Z,43.10
2018-01-13T09:06:36.714Z,43.10
2018-01-13T09:09:04.225Z,43.10
2018-01-13T09:11:31.732Z,43.10
2018-01-13T09:13:59.248Z,43.10
2018-01-13T09:16:27.729Z,43.10
2018-01-13T09:18:55.241Z,43.10
2018-01-13T09:21:22.743Z,43.10
2018-01-13T09:23:50.236Z,43.10
2018-01-13T09:26:17.744Z,43.10
2018-01-13T09:28:45.232Z,43.10
2018-01-13T09:31:12.761Z,43.10
2018-01-13T09:33:40.277Z,43.80
2018-01-13T09:36:07.817Z,43.20
2018-01-13T09:38:35.312Z,43.20
2018-01-13T09:41:03.593Z,43.20
2018-01-13T09:43:31.856Z,43.20
2018-01-13T09:46:00.121Z,43.20
2018-01-13T09:48:27.635Z,43.20
2018-01-13T09:50:55.124Z,43.80
2018-01-13T09:53:22.645Z,43.20
2018-01-13T09:55:50.132Z,43.20
2018-01-13T09:58:17.640Z,43.20
2018-01-13T10:00:45.128Z,43.10
2018-01-13T10:03:12.637Z,43.10
2018-01-13T10:05:41.133Z,43.10
2018-01-13T10:08:08.625Z,43.70
2018-01-13T10:10:36.141Z,43.10
2018-01-13T10:13:04.606Z,43.10
2018-01-13T10:15:32.889Z,43.20
2018-01-13T10:18:02.088Z,43.20
2018-01-13T10:20:30.369Z,43.20
2018-01-13T10:22:57.866Z,43.10
2018-01-13T10:25:25.375Z,43.20
2018-01-13T10:27:53.663Z,43.10
2018-01-13T10:30:21.152Z,43.10
2018-01-13T10:32:48.724Z,43.10
2018-01-13T10:35:16.201Z,43.10
2018-01-13T10:37:43.714Z,43.10
2018-01-13T10:40:11.258Z,43.10
2018-01-13T10:42:38.758Z,43.00
2018-01-13T10:45:06.284Z,43.10
2018-01-13T10:47:33.805Z,43.10
2018-01-13T10:50:02.074Z,43.20
2018-01-13T10:52:30.363Z,43.20
2018-01-13T10:54:58.620Z,43.20
2018-01-13T10:57:27.343Z,43.20
2018-01-13T10:59:55.060Z,43.10
2018-01-13T11:02:23.363Z,43.20
2018-01-13T11:04:50.876Z,43.20
2018-01-13T11:07:18.374Z,43.20
2018-01-13T11:09:46.464Z,43.20
2018-01-13T11:12:15.512Z,43.20
2018-01-13T11:14:44.977Z,43.20
2018-01-13T11:17:12.492Z,43.20
2018-01-13T11:19:40.757Z,43.30
2018-01-13T11:22:10.010Z,43.30
2018-01-13T11:24:37.504Z,43.30
2018-01-13T11:27:05.012Z,43.30
2018-01-13T11:29:32.537Z,43.50
2018-01-13T11:32:00.801Z,43.30
2018-01-13T11:34:29.085Z,43.40
2018-01-13T11:36:57.364Z,43.50
2018-01-13T11:39:25.624Z,43.40
2018-01-13T11:41:53.910Z,43.40
2018-01-13T11:44:23.126Z,43.40
2018-01-13T11:46:50.666Z,43.40
2018-01-13T11:49:18.921Z,43.40
2018-01-13T11:51:46.422Z,43.30
2018-01-13T11:54:14.723Z,43.40
2018-01-13T11:56:42.216Z,43.30
2018-01-13T11:59:10.529Z,43.70
2018-01-13T12:01:38.028Z,43.70
2018-01-13T12:04:05.556Z,43.80
2018-01-13T12:06:33.064Z,43.70
2018-01-13T12:09:01.790Z,43.70
2018-01-13T12:11:29.306Z,43.70
2018-01-13T12:13:57.577Z,44.10
2018-01-13T12:16:25.102Z,44.10
2018-01-13T12:18:52.601Z,44.10
2018-01-13T12:21:20.890Z,44.70
2018-01-13T12:23:48.393Z,44.70
2018-01-13T12:26:17.869Z,44.70
2018-01-13T12:28:47.372Z,44.80
2018-01-13T12:31:14.872Z,44.90
2018-01-13T12:33:43.895Z,44.70
2018-01-13T12:36:12.180Z,44.50
2018-01-13T12:38:39.673Z,44.50
2018-01-13T12:41:07.181Z,44.40
2018-01-13T12:43:36.375Z,44.30
2018-01-13T12:46:04.661Z,44.40
2018-01-13T12:48:32.923Z,44.30
2018-01-13T12:51:01.212Z,44.40
2018-01-13T12:53:29.496Z,44.40
2018-01-13T12:55:56.989Z,44.40
2018-01-13T12:58:24.724Z,44.40
2018-01-13T13:00:52.391Z,44.30
2018-01-13T13:03:20.252Z,44.20
2018-01-13T13:05:48.004Z,44.20
2018-01-13T13:08:15.509Z,44.20
2018-01-13T13:10:43.027Z,44.10
2018-01-13T13:13:10.525Z,44.00
2018-01-13T13:15:39.168Z,44.00
2018-01-13T13:18:06.665Z,44.00
2018-01-13T13:20:34.200Z,44.00
2018-01-13T13:23:01.696Z,44.00
2018-01-13T13:25:29.196Z,43.90
2018-01-13T13:27:56.720Z,44.30
2018-01-13T13:30:24.968Z,43.90
2018-01-13T13:32:52.481Z,43.90
2018-01-13T13:35:19.981Z,43.90
2018-01-13T13:37:47.494Z,43.70
2018-01-13T13:40:14.989Z,43.80
2018-01-13T13:42:42.493Z,43.90
2018-01-13T13:45:10.776Z,43.80
2018-01-13T13:47:38.286Z,43.80
2018-01-13T13:50:07.317Z,43.80
2018-01-13T13:52:35.581Z,43.80
2018-01-13T13:55:05.849Z,43.90
2018-01-13T13:57:33.396Z,43.90
2018-01-13T14:00:01.866Z,44.30
2018-01-13T14:02:29.372Z,44.40
2018-01-13T14:04:56.897Z,44.40
2018-01-13T14:07:24.398Z,44.40
2018-01-13T14:09:52.002Z,44.40
2018-01-13T14:12:19.528Z,44.60
2018-01-13T14:14:47.791Z,45.00
2018-01-13T14:17:15.301Z,45.00
2018-01-13T14:19:43.508Z,45.00
2018-01-13T14:22:11.029Z,44.90
2018-01-13T14:24:38.544Z,45.30
2018-01-13T14:27:06.833Z,45.40
2018-01-13T14:29:35.109Z,45.30
2018-01-13T14:32:03.401Z,45.30
2018-01-13T14:34:30.928Z,45.30
2018-01-13T14:36:59.188Z,45.20
2018-01-13T14:39:26.700Z,45.20
2018-01-13T14:41:54.223Z,45.20
2018-01-13T14:44:22.487Z,45.10
2018-01-13T14:46:50.033Z,45.00
2018-01-13T14:49:19.066Z,45.00
2018-01-13T14:51:46.578Z,44.90
2018-01-13T14:54:15.476Z,44.90
2018-01-13T14:56:44.418Z,44.70
2018-01-13T14:59:11.932Z,44.70
2018-01-13T15:01:40.217Z,44.60
2018-01-13T15:04:08.477Z,44.60
2018-01-13T15:06:35.973Z,44.60
2018-01-13T15:09:05.450Z,44.60
2018-01-13T15:11:33.732Z,44.50
2018-01-13T15:14:02.021Z,44.50
2018-01-13T15:16:31.504Z,44.50
2018-01-13T15:18:59.776Z,44.40
2018-01-13T15:21:28.433Z,44.40
2018-01-13T15:23:56.713Z,44.60
2018-01-13T15:26:24.988Z,44.40
2018-01-13T15:28:55.272Z,44.40
2018-01-13T15:31:22.773Z,44.40
2018-01-13T15:33:50.290Z,44.40
2018-01-13T15:36:17.789Z,44.40
2018-01-13T15:38:45.309Z,44.30
2018-01-13T15:41:12.821Z,44.30
2018-01-13T15:43:41.076Z,44.40
2018-01-13T15:46:08.588Z,44.40
2018-01-13T15:48:38.117Z,44.30
2018-01-13T15:51:05.620Z,44.40
2018-01-13T15:53:33.882Z,44.30
2018-01-13T15:56:04.121Z,44.30
2018-01-13T15:58:31.627Z,44.20
2018-01-13T16:00:59.151Z,44.30
2018-01-13T16:03:26.659Z,44.30
2018-01-13T16:05:54.945Z,44.40
2018-01-13T16:08:22.445Z,44.40
2018-01-13T16:10:49.944Z,44.30
2018-01-13T16:13:20.181Z,44.40
2018-01-13T16:15:48.452Z,44.20
2018-01-13T16:18:15.979Z,44.20
2018-01-13T16:20:44.440Z,44.30
2018-01-13T16:23:11.964Z,44.10
2018-01-13T16:25:40.229Z,44.20
2018-01-13T16:28:08.496Z,44.20
2018-01-13T16:30:36.790Z,45.00
2018-01-13T16:33:07.025Z,44.30
2018-01-13T16:35:34.556Z,44.20
2018-01-13T16:38:02.826Z,45.30
2018-01-13T16:40:30.372Z,44.60
2018-01-13T16:42:58.642Z,45.20
2018-01-13T16:45:27.681Z,45.40
2018-01-13T16:47:56.165Z,45.30
2018-01-13T16:50:23.669Z,45.00
2018-01-13T16:52:54.636Z,45.10
2018-01-13T16:55:22.904Z,44.90
2018-01-13T16:57:51.192Z,45.10
2018-01-13T17:00:19.453Z,45.10
2018-01-13T17:02:47.744Z,45.10
2018-01-13T17:05:16.029Z,45.00
2018-01-13T17:07:45.348Z,45.00
2018-01-13T17:10:12.864Z,44.90
2018-01-13T17:12:41.154Z,44.80
2018-01-13T17:15:08.653Z,44.80
2018-01-13T17:17:36.182Z,44.80
2018-01-13T17:20:03.701Z,44.70
2018-01-13T17:22:31.198Z,44.60
2018-01-13T17:24:58.717Z,44.90
2018-01-13T17:27:26.218Z,44.60
2018-01-13T17:29:53.742Z,44.50
2018-01-13T17:32:23.976Z,44.40
2018-01-13T17:34:51.492Z,44.40
2018-01-13T17:37:21.461Z,44.40
2018-01-13T17:39:48.984Z,44.40
2018-01-13T17:42:16.486Z,44.40
2018-01-13T17:44:45.981Z,44.40
2018-01-13T17:47:13.504Z,44.30
2018-01-13T17:49:41.772Z,44.30
2018-01-13T17:52:11.230Z,44.30
2018-01-13T17:54:38.766Z,45.00
2018-01-13T17:57:06.355Z,44.30
2018-01-13T17:59:35.679Z,44.40
2018-01-13T18:02:04.001Z,44.30
2018-01-13T18:04:31.588Z,44.30
2018-01-13T18:06:59.902Z,44.20
2018-01-13T18:09:28.220Z,44.20
2018-01-13T18:11:55.724Z,44.20
2018-01-13T18:14:23.245Z,44.20
2018-01-13T18:16:51.776Z,44.20
2018-01-13T18:19:19.297Z,44.20
2018-01-13T18:21:46.805Z,44.20
2018-01-13T18:24:15.097Z,44.20
2018-01-13T18:26:42.596Z,44.10
2018-01-13T18:29:10.118Z,44.20
2018-01-13T18:31:37.617Z,44.10
2018-01-13T18:34:05.114Z,44.10
2018-01-13T18:36:32.632Z,44.10
2018-01-13T18:39:00.146Z,44.10
2018-01-13T18:41:27.669Z,44.10
2018-01-13T18:43:55.932Z,44.10
2018-01-13T18:46:24.213Z,44.00
2018-01-13T18:48:52.480Z,44.10
2018-01-13T18:51:20.000Z,44.00
2018-01-13T18:53:47.528Z,44.00
2018-01-13T18:56:15.042Z,44.00
2018-01-13T18:58:44.404Z,44.00
2018-01-13T19:01:11.905Z,44.00
2018-01-13T19:03:40.200Z,44.00
2018-01-13T19:06:08.492Z,44.00
2018-01-13T19:08:35.992Z,43.90
2018-01-13T19:11:03.488Z,43.90
2018-01-13T19:13:31.769Z,44.00
2018-01-13T19:16:00.032Z,44.00
2018-01-13T19:18:28.316Z,44.00
2018-01-13T19:20:56.581Z,43.90
2018-01-13T19:23:24.077Z,43.90
2018-01-13T19:25:51.605Z,43.90
2018-01-13T19:28:19.873Z,43.90
2018-01-13T19:30:48.156Z,43.90
2018-01-13T19:33:16.871Z,43.90
2018-01-13T19:35:44.389Z,43.90
2018-01-13T19:38:11.892Z,43.90
2018-01-13T19:40:39.404Z,44.00
2018-01-13T19:43:07.668Z,44.00
2018-01-13T19:45:35.188Z,44.00
2018-01-13T19:48:02.682Z,44.10
2018-01-13T19:50:33.676Z,44.30
2018-01-13T19:53:01.638Z,44.20
2018-01-13T19:55:30.526Z,44.10
2018-01-13T19:57:58.392Z,44.10
2018-01-13T20:00:26.258Z,44.10
2018-01-13T20:02:54.121Z,44.00
2018-01-13T20:05:21.988Z,44.00
2018-01-13T20:07:53.744Z,44.00
2018-01-13T20:10:21.609Z,43.90
2018-01-13T20:12:50.191Z,43.80
2018-01-13T20:15:18.807Z,43.80
2018-01-13T20:17:46.618Z,43.80
2018-01-13T20:20:14.402Z,44.50
2018-01-13T20:22:42.168Z,43.80
2018-01-13T20:25:10.646Z,43.70
2018-01-13T20:27:38.408Z,43.60
2018-01-13T20:30:07.196Z,43.60
2018-01-13T20:32:35.003Z,43.60
2018-01-13T20:35:02.720Z,43.70
2018-01-13T20:37:30.483Z,43.60
2018-01-13T20:39:58.283Z,43.50
2018-01-13T20:42:26.111Z,43.50
2018-01-13T20:44:54.693Z,43.40
2018-01-13T20:47:22.456Z,43.40
2018-01-13T20:49:50.076Z,44.00
2018-01-13T20:52:17.881Z,43.40
2018-01-13T20:54:45.550Z,43.30
2018-01-13T20:57:13.880Z,43.20
2018-01-13T20:59:42.156Z,43.20
2018-01-13T21:02:10.416Z,43.20
2018-01-13T21:04:37.928Z,43.20
2018-01-13T21:07:05.585Z,43.20
2018-01-13T21:09:35.191Z,43.20
2018-01-13T21:12:03.681Z,43.10
2018-01-13T21:14:31.209Z,43.10
2018-01-13T21:16:58.992Z,43.10
2018-01-13T21:19:26.529Z,43.10
2018-01-13T21:21:55.030Z,43.20
2018-01-13T21:24:22.584Z,43.00
2018-01-13T21:26:50.453Z,43.10
2018-01-13T21:29:20.706Z,43.20
2018-01-13T21:31:48.539Z,43.20
2018-01-13T21:34:16.093Z,43.20
2018-01-13T21:36:45.582Z,43.20
2018-01-13T21:39:13.087Z,43.20
2018-01-13T21:41:40.600Z,43.20
2018-01-13T21:44:08.101Z,43.10
2018-01-13T21:46:35.593Z,43.10
2018-01-13T21:49:04.075Z,43.00
2018-01-13T21:51:32.349Z,43.00
2018-01-13T21:54:01.592Z,42.90
2018-01-13T21:56:29.089Z,42.90
2018-01-13T21:58:56.613Z,42.90
2018-01-13T22:01:24.129Z,42.90
2018-01-13T22:03:52.395Z,42.80
2018-01-13T22:06:19.920Z,42.80
2018-01-13T22:08:47.433Z,42.70
2018-01-13T22:11:14.929Z,42.70
2018-01-13T22:13:43.381Z,42.70
2018-01-13T22:16:10.909Z,42.70
2018-01-13T22:18:39.184Z,42.90
2018-01-13T22:21:06.721Z,42.80
2018-01-13T22:23:35.160Z,42.70
2018-01-13T22:26:02.681Z,42.80
2018-01-13T22:28:30.955Z,42.70
2018-01-13T22:30:58.468Z,42.70
2018-01-13T22:33:25.972Z,42.70
2018-01-13T22:35:54.252Z,42.70
2018-01-13T22:38:21.863Z,42.70
2018-01-13T22:40:50.510Z,42.80
2018-01-13T22:43:18.580Z,42.70
2018-01-13T22:45:46.089Z,42.60
2018-01-13T22:48:14.005Z,42.50
2018-01-13T22:50:41.613Z,42.60
2018-01-13T22:53:10.149Z,42.50
2018-01-13T22:55:37.664Z,42.60
2018-01-13T22:58:05.949Z,43.30
2018-01-13T23:00:54.993Z,42.60
2018-01-13T23:03:22.500Z,42.50
2018-01-13T23:05:50.014Z,42.50
2018-01-13T23:08:19.237Z,42.60
2018-01-13T23:10:46.729Z,42.60
2018-01-13T23:13:14.272Z,42.50
2018-01-13T23:15:41.769Z,42.40
2018-01-13T23:18:10.198Z,42.50
2018-01-13T23:20:37.742Z,42.50
2018-01-13T23:23:05.232Z,42.50
2018-01-13T23:25:32.744Z,42.50
2018-01-13T23:28:01.005Z,42.40
2018-01-13T23:30:29.295Z,42.30
2018-01-13T23:32:57.577Z,42.40
2018-01-13T23:35:25.068Z,42.40
2018-01-13T23:37:53.019Z,42.40
2018-01-13T23:40:20.781Z,42.40
2018-01-13T23:42:51.130Z,42.40
2018-01-13T23:45:19.793Z,42.40
2018-01-13T23:47:47.596Z,42.30
2018-01-13T23:50:15.318Z,42.30
2018-01-13T23:52:43.080Z,42.30
2018-01-13T23:55:12.593Z,42.30
2018-01-13T23:57:40.113Z,42.40
